sensor_id;sensor_type;location;lat;lon;timestamp;pressure;altitude;pressure_sealevel;temperature;humidity
46394;BME280;32099;53.588;10.176;2023-09-19T00:01:28;99994.94;;;17.58;81.79
46394;BME280;32099;53.588;10.176;2023-09-19T00:03:55;100007.13;;;17.62;80.93
46394;BME280;32099;53.588;10.176;2023-09-19T00:06:22;99996.22;;;17.67;81.26
46394;BME280;32099;53.588;10.176;2023-09-19T00:08:50;99991.28;;;17.69;80.76
46394;BME280;32099;53.588;10.176;2023-09-19T00:11:16;99988.75;;;17.68;82.05
46394;BME280;32099;53.588;10.176;2023-09-19T00:13:41;100002.81;;;17.66;81.96
46394;BME280;32099;53.588;10.176;2023-09-19T00:16:08;99991.50;;;17.68;80.84
46394;BME280;32099;53.588;10.176;2023-09-19T00:18:35;99984.31;;;17.67;82.49
46394;BME280;32099;53.588;10.176;2023-09-19T00:21:01;100005.56;;;17.66;82.25
46394;BME280;32099;53.588;10.176;2023-09-19T00:23:29;99987.69;;;17.69;81.52
46394;BME280;32099;53.588;10.176;2023-09-19T00:25:58;99999.56;;;17.69;81.60
46394;BME280;32099;53.588;10.176;2023-09-19T00:28:24;100005.31;;;17.68;83.04
46394;BME280;32099;53.588;10.176;2023-09-19T00:30:49;100006.16;;;17.68;81.82
46394;BME280;32099;53.588;10.176;2023-09-19T00:33:15;100006.16;;;17.68;81.35
46394;BME280;32099;53.588;10.176;2023-09-19T00:36:02;100015.50;;;17.67;81.36
46394;BME280;32099;53.588;10.176;2023-09-19T00:38:29;100007.56;;;17.71;82.02
46394;BME280;32099;53.588;10.176;2023-09-19T00:40:55;100001.78;;;17.72;80.79
46394;BME280;32099;53.588;10.176;2023-09-19T00:43:22;100002.97;;;17.77;81.28
46394;BME280;32099;53.588;10.176;2023-09-19T00:45:49;99997.19;;;17.78;81.76
46394;BME280;32099;53.588;10.176;2023-09-19T00:48:16;100002.50;;;17.80;80.62
46394;BME280;32099;53.588;10.176;2023-09-19T00:50:42;100011.34;;;17.82;80.60
46394;BME280;32099;53.588;10.176;2023-09-19T00:53:09;100010.84;;;17.85;81.13
46394;BME280;32099;53.588;10.176;2023-09-19T00:55:38;99995.38;;;17.84;80.77
46394;BME280;32099;53.588;10.176;2023-09-19T00:58:06;99996.22;;;17.84;80.40
46394;BME280;32099;53.588;10.176;2023-09-19T01:00:32;100003.09;;;17.82;81.34
46394;BME280;32099;53.588;10.176;2023-09-19T01:02:59;100000.56;;;17.80;81.41
46394;BME280;32099;53.588;10.176;2023-09-19T01:05:26;100004.38;;;17.79;80.47
46394;BME280;32099;53.588;10.176;2023-09-19T01:07:51;100007.16;;;17.79;81.02
46394;BME280;32099;53.588;10.176;2023-09-19T01:10:18;100014.34;;;17.80;81.60
46394;BME280;32099;53.588;10.176;2023-09-19T01:18:11;100015.78;;;17.83;81.16
46394;BME280;32099;53.588;10.176;2023-09-19T01:23:20;100018.63;;;17.88;80.63
46394;BME280;32099;53.588;10.176;2023-09-19T01:26:06;100025.31;;;17.92;81.67
46394;BME280;32099;53.588;10.176;2023-09-19T01:31:19;100021.63;;;17.86;80.50
46394;BME280;32099;53.588;10.176;2023-09-19T01:33:56;100026.56;;;17.84;80.96
46394;BME280;32099;53.588;10.176;2023-09-19T01:36:26;100029.22;;;17.79;81.05
46394;BME280;32099;53.588;10.176;2023-09-19T01:38:52;100036.91;;;17.77;80.99
46394;BME280;32099;53.588;10.176;2023-09-19T01:41:21;100044.34;;;17.77;80.94
46394;BME280;32099;53.588;10.176;2023-09-19T01:43:54;100039.56;;;17.72;82.26
46394;BME280;32099;53.588;10.176;2023-09-19T01:46:24;100038.75;;;17.71;81.37
46394;BME280;32099;53.588;10.176;2023-09-19T01:49:04;100029.63;;;17.71;81.41
46394;BME280;32099;53.588;10.176;2023-09-19T01:54:16;100039.91;;;17.76;80.25
46394;BME280;32099;53.588;10.176;2023-09-19T01:56:57;100041.56;;;17.77;81.56
46394;BME280;32099;53.588;10.176;2023-09-19T01:59:35;100050.34;;;17.73;80.29
46394;BME280;32099;53.588;10.176;2023-09-19T02:02:06;100049.78;;;17.71;80.71
46394;BME280;32099;53.588;10.176;2023-09-19T02:04:32;100043.88;;;17.68;81.01
46394;BME280;32099;53.588;10.176;2023-09-19T02:06:59;100052.31;;;17.61;80.27
46394;BME280;32099;53.588;10.176;2023-09-19T02:09:26;100057.47;;;17.57;80.55
46394;BME280;32099;53.588;10.176;2023-09-19T02:11:51;100053.91;;;17.57;80.36
46394;BME280;32099;53.588;10.176;2023-09-19T02:14:17;100055.47;;;17.53;80.54
46394;BME280;32099;53.588;10.176;2023-09-19T02:16:44;100061.25;;;17.51;79.87
46394;BME280;32099;53.588;10.176;2023-09-19T02:19:10;100065.69;;;17.52;79.84
46394;BME280;32099;53.588;10.176;2023-09-19T02:21:35;100068.66;;;17.51;79.87
46394;BME280;32099;53.588;10.176;2023-09-19T02:24:00;100070.81;;;17.49;80.08
46394;BME280;32099;53.588;10.176;2023-09-19T02:26:26;100073.22;;;17.45;81.20
46394;BME280;32099;53.588;10.176;2023-09-19T02:28:52;100074.91;;;17.46;80.51
46394;BME280;32099;53.588;10.176;2023-09-19T02:31:18;100081.50;;;17.45;81.28
46394;BME280;32099;53.588;10.176;2023-09-19T02:33:43;100069.88;;;17.43;80.50
46394;BME280;32099;53.588;10.176;2023-09-19T02:36:08;100082.56;;;17.44;80.19
46394;BME280;32099;53.588;10.176;2023-09-19T02:38:34;100082.56;;;17.44;80.88
46394;BME280;32099;53.588;10.176;2023-09-19T02:40:59;100079.34;;;17.47;80.02
46394;BME280;32099;53.588;10.176;2023-09-19T02:43:25;100090.72;;;17.51;80.07
46394;BME280;32099;53.588;10.176;2023-09-19T02:45:50;100086.53;;;17.48;80.08
46394;BME280;32099;53.588;10.176;2023-09-19T02:48:18;100082.34;;;17.46;79.97
46394;BME280;32099;53.588;10.176;2023-09-19T02:50:43;100084.50;;;17.43;80.16
46394;BME280;32099;53.588;10.176;2023-09-19T02:53:09;100078.75;;;17.45;80.15
46394;BME280;32099;53.588;10.176;2023-09-19T02:55:37;100091.44;;;17.46;79.94
46394;BME280;32099;53.588;10.176;2023-09-19T02:58:05;100088.47;;;17.48;79.52
46394;BME280;32099;53.588;10.176;2023-09-19T03:00:32;100083.78;;;17.48;79.66
46394;BME280;32099;53.588;10.176;2023-09-19T03:03:00;100087.34;;;17.49;79.38
46394;BME280;32099;53.588;10.176;2023-09-19T03:05:27;100085.09;;;17.46;80.47
46394;BME280;32099;53.588;10.176;2023-09-19T03:07:55;100091.69;;;17.45;80.02
46394;BME280;32099;53.588;10.176;2023-09-19T03:10:21;100079.47;;;17.40;79.30
46394;BME280;32099;53.588;10.176;2023-09-19T03:12:47;100083.31;;;17.39;79.61
46394;BME280;32099;53.588;10.176;2023-09-19T03:15:13;100088.34;;;17.42;79.46
46394;BME280;32099;53.588;10.176;2023-09-19T03:17:42;100087.53;;;17.42;79.55
46394;BME280;32099;53.588;10.176;2023-09-19T03:20:08;100094.59;;;17.38;79.37
46394;BME280;32099;53.588;10.176;2023-09-19T03:22:36;100097.34;;;17.38;78.80
46394;BME280;32099;53.588;10.176;2023-09-19T03:25:01;100100.59;;;17.35;79.40
46394;BME280;32099;53.588;10.176;2023-09-19T03:27:27;100096.41;;;17.32;79.29
46394;BME280;32099;53.588;10.176;2023-09-19T03:29:52;100101.66;;;17.34;79.29
46394;BME280;32099;53.588;10.176;2023-09-19T03:32:18;100107.50;;;17.37;79.77
46394;BME280;32099;53.588;10.176;2023-09-19T03:34:44;100096.75;;;17.36;79.00
46394;BME280;32099;53.588;10.176;2023-09-19T03:37:09;100096.75;;;17.36;78.47
46394;BME280;32099;53.588;10.176;2023-09-19T03:39:35;100096.16;;;17.34;78.71
46394;BME280;32099;53.588;10.176;2023-09-19T03:42:00;100097.97;;;17.28;78.46
46394;BME280;32099;53.588;10.176;2023-09-19T03:44:27;100100.97;;;17.26;78.28
46394;BME280;32099;53.588;10.176;2023-09-19T03:46:52;100106.97;;;17.23;78.24
46394;BME280;32099;53.588;10.176;2023-09-19T03:49:20;100115.47;;;17.22;78.11
46394;BME280;32099;53.588;10.176;2023-09-19T03:51:45;100124.22;;;17.19;78.58
46394;BME280;32099;53.588;10.176;2023-09-19T03:54:11;100116.44;;;17.16;78.28
46394;BME280;32099;53.588;10.176;2023-09-19T03:56:37;100116.56;;;17.09;78.49
46394;BME280;32099;53.588;10.176;2023-09-19T03:59:03;100114.78;;;17.03;78.16
46394;BME280;32099;53.588;10.176;2023-09-19T04:01:28;100120.16;;;16.98;77.84
46394;BME280;32099;53.588;10.176;2023-09-19T04:03:55;100123.88;;;16.91;76.88
46394;BME280;32099;53.588;10.176;2023-09-19T04:06:21;100129.03;;;16.88;76.43
46394;BME280;32099;53.588;10.176;2023-09-19T04:08:47;100141.38;;;16.85;76.19
46394;BME280;32099;53.588;10.176;2023-09-19T04:11:13;100132.97;;;16.80;75.56
46394;BME280;32099;53.588;10.176;2023-09-19T04:13:38;100129.63;;;16.78;75.35
46394;BME280;32099;53.588;10.176;2023-09-19T04:16:03;100141.34;;;16.73;75.04
46394;BME280;32099;53.588;10.176;2023-09-19T04:18:29;100149.72;;;16.66;74.48
46394;BME280;32099;53.588;10.176;2023-09-19T04:20:57;100153.19;;;16.62;74.36
46394;BME280;32099;53.588;10.176;2023-09-19T04:23:23;100148.88;;;16.54;73.65
46394;BME280;32099;53.588;10.176;2023-09-19T04:25:48;100157.00;;;16.49;72.70
46394;BME280;32099;53.588;10.176;2023-09-19T04:28:13;100159.25;;;16.40;72.79
46394;BME280;32099;53.588;10.176;2023-09-19T04:30:40;100161.66;;;16.37;72.74
46394;BME280;32099;53.588;10.176;2023-09-19T04:33:06;100171.78;;;16.36;73.48
46394;BME280;32099;53.588;10.176;2023-09-19T04:35:31;100173.38;;;16.32;73.04
46394;BME280;32099;53.588;10.176;2023-09-19T04:37:57;100177.91;;;16.26;72.49
46394;BME280;32099;53.588;10.176;2023-09-19T04:40:22;100194.50;;;16.19;72.30
46394;BME280;32099;53.588;10.176;2023-09-19T04:42:55;100194.78;;;16.11;72.58
46394;BME280;32099;53.588;10.176;2023-09-19T04:45:24;100187.41;;;16.12;73.44
46394;BME280;32099;53.588;10.176;2023-09-19T04:47:51;100190.75;;;16.14;73.30
46394;BME280;32099;53.588;10.176;2023-09-19T04:50:17;100200.09;;;16.13;73.15
46394;BME280;32099;53.588;10.176;2023-09-19T04:52:42;100201.59;;;16.09;73.40
46394;BME280;32099;53.588;10.176;2023-09-19T04:55:12;100193.59;;;16.07;73.40
46394;BME280;32099;53.588;10.176;2023-09-19T04:57:45;100191.31;;;16.04;73.29
46394;BME280;32099;53.588;10.176;2023-09-19T05:00:14;100204.09;;;15.98;73.32
46394;BME280;32099;53.588;10.176;2023-09-19T05:02:41;100208.59;;;15.93;73.12
46394;BME280;32099;53.588;10.176;2023-09-19T05:05:08;100203.81;;;15.88;73.66
46394;BME280;32099;53.588;10.176;2023-09-19T05:07:35;100207.38;;;15.88;73.65
46394;BME280;32099;53.588;10.176;2023-09-19T05:10:00;100212.88;;;15.88;73.81
46394;BME280;32099;53.588;10.176;2023-09-19T05:12:26;100209.09;;;15.83;73.21
46394;BME280;32099;53.588;10.176;2023-09-19T05:14:52;100210.16;;;15.82;73.20
46394;BME280;32099;53.588;10.176;2023-09-19T05:17:17;100200.28;;;15.81;73.88
46394;BME280;32099;53.588;10.176;2023-09-19T05:19:43;100217.84;;;15.80;73.53
46394;BME280;32099;53.588;10.176;2023-09-19T05:22:08;100212.91;;;15.82;73.48
46394;BME280;32099;53.588;10.176;2023-09-19T05:24:33;100224.53;;;15.84;73.42
46394;BME280;32099;53.588;10.176;2023-09-19T05:26:59;100236.41;;;15.84;73.24
46394;BME280;32099;53.588;10.176;2023-09-19T05:29:24;100237.66;;;15.82;73.83
46394;BME280;32099;53.588;10.176;2023-09-19T05:31:49;100225.00;;;15.81;73.80
46394;BME280;32099;53.588;10.176;2023-09-19T05:34:15;100226.91;;;15.80;73.87
46394;BME280;32099;53.588;10.176;2023-09-19T05:36:41;100230.09;;;15.77;74.10
46394;BME280;32099;53.588;10.176;2023-09-19T05:39:06;100230.97;;;15.78;73.88
46394;BME280;32099;53.588;10.176;2023-09-19T05:41:34;100227.59;;;15.76;74.02
46394;BME280;32099;53.588;10.176;2023-09-19T05:44:02;100225.31;;;15.72;74.57
46394;BME280;32099;53.588;10.176;2023-09-19T05:46:31;100226.38;;;15.71;74.60
46394;BME280;32099;53.588;10.176;2023-09-19T05:48:57;100226.84;;;15.68;74.42
46394;BME280;32099;53.588;10.176;2023-09-19T05:51:23;100229.38;;;15.70;74.63
46394;BME280;32099;53.588;10.176;2023-09-19T05:53:48;100234.47;;;15.66;74.48
46394;BME280;32099;53.588;10.176;2023-09-19T05:56:14;100236.63;;;15.64;74.49
46394;BME280;32099;53.588;10.176;2023-09-19T05:58:40;100232.34;;;15.68;74.33
46394;BME280;32099;53.588;10.176;2023-09-19T06:01:08;100242.88;;;15.71;74.27
46394;BME280;32099;53.588;10.176;2023-09-19T06:03:34;100239.03;;;15.72;73.74
46394;BME280;32099;53.588;10.176;2023-09-19T06:06:00;100254.25;;;15.75;74.09
46394;BME280;32099;53.588;10.176;2023-09-19T06:08:26;100249.13;;;15.79;73.47
46394;BME280;32099;53.588;10.176;2023-09-19T06:10:51;100236.84;;;15.81;73.75
46394;BME280;32099;53.588;10.176;2023-09-19T06:13:17;100240.59;;;15.87;74.04
46394;BME280;32099;53.588;10.176;2023-09-19T06:15:43;100242.81;;;15.97;73.62
46394;BME280;32099;53.588;10.176;2023-09-19T06:18:10;100244.00;;;16.01;73.63
46394;BME280;32099;53.588;10.176;2023-09-19T06:20:39;100253.03;;;16.08;73.91
46394;BME280;32099;53.588;10.176;2023-09-19T06:23:09;100257.13;;;16.17;74.05
46394;BME280;32099;53.588;10.176;2023-09-19T06:25:34;100245.19;;;16.24;73.04
46394;BME280;32099;53.588;10.176;2023-09-19T06:28:00;100258.50;;;16.27;73.45
46394;BME280;32099;53.588;10.176;2023-09-19T06:30:29;100248.22;;;16.34;73.49
46394;BME280;32099;53.588;10.176;2023-09-19T06:32:59;100249.44;;;16.38;72.87
46394;BME280;32099;53.588;10.176;2023-09-19T06:35:25;100262.84;;;16.46;73.06
46394;BME280;32099;53.588;10.176;2023-09-19T06:37:51;100265.50;;;16.53;72.48
46394;BME280;32099;53.588;10.176;2023-09-19T06:40:17;100260.63;;;16.55;72.44
46394;BME280;32099;53.588;10.176;2023-09-19T06:42:45;100272.50;;;16.56;72.12
46394;BME280;32099;53.588;10.176;2023-09-19T06:45:12;100269.25;;;16.59;72.41
46394;BME280;32099;53.588;10.176;2023-09-19T06:47:38;100277.84;;;16.62;71.75
46394;BME280;32099;53.588;10.176;2023-09-19T06:50:04;100266.19;;;16.67;72.18
46394;BME280;32099;53.588;10.176;2023-09-19T06:52:31;100264.50;;;16.66;71.53
46394;BME280;32099;53.588;10.176;2023-09-19T06:54:57;100274.44;;;16.67;71.97
46394;BME280;32099;53.588;10.176;2023-09-19T06:57:23;100267.16;;;16.73;71.61
46394;BME280;32099;53.588;10.176;2023-09-19T06:59:49;100266.66;;;16.76;71.86
46394;BME280;32099;53.588;10.176;2023-09-19T07:02:15;100269.56;;;16.81;71.42
46394;BME280;32099;53.588;10.176;2023-09-19T07:04:40;100281.53;;;16.87;71.85
46394;BME280;32099;53.588;10.176;2023-09-19T07:07:05;100270.06;;;16.90;71.01
46394;BME280;32099;53.588;10.176;2023-09-19T07:09:33;100283.44;;;16.86;70.28
46394;BME280;32099;53.588;10.176;2023-09-19T07:11:59;100304.88;;;16.84;70.18
46394;BME280;32099;53.588;10.176;2023-09-19T07:14:25;100305.59;;;16.79;70.77
46394;BME280;32099;53.588;10.176;2023-09-19T07:16:50;100308.81;;;16.76;70.86
46394;BME280;32099;53.588;10.176;2023-09-19T07:19:17;100306.88;;;16.77;71.81
46394;BME280;32099;53.588;10.176;2023-09-19T07:21:42;100305.09;;;16.83;71.15
46394;BME280;32099;53.588;10.176;2023-09-19T07:24:07;100307.63;;;16.84;71.25
46394;BME280;32099;53.588;10.176;2023-09-19T07:26:33;100315.31;;;16.94;71.29
46394;BME280;32099;53.588;10.176;2023-09-19T07:28:59;100312.84;;;17.04;71.03
46394;BME280;32099;53.588;10.176;2023-09-19T07:31:24;100313.59;;;17.11;70.86
46394;BME280;32099;53.588;10.176;2023-09-19T07:33:50;100305.44;;;17.17;70.93
46394;BME280;32099;53.588;10.176;2023-09-19T07:36:15;100310.00;;;17.23;70.10
46394;BME280;32099;53.588;10.176;2023-09-19T07:38:41;100311.91;;;17.22;70.64
46394;BME280;32099;53.588;10.176;2023-09-19T07:41:07;100319.94;;;17.24;70.44
46394;BME280;32099;53.588;10.176;2023-09-19T07:43:34;100321.03;;;17.23;70.30
46394;BME280;32099;53.588;10.176;2023-09-19T07:46:06;100328.31;;;17.17;69.36
46394;BME280;32099;53.588;10.176;2023-09-19T07:48:33;100323.28;;;17.14;70.19
46394;BME280;32099;53.588;10.176;2023-09-19T07:51:07;100334.53;;;17.13;70.35
46394;BME280;32099;53.588;10.176;2023-09-19T07:53:34;100329.03;;;17.13;71.24
46394;BME280;32099;53.588;10.176;2023-09-19T07:56:03;100331.41;;;17.09;70.62
46394;BME280;32099;53.588;10.176;2023-09-19T07:58:32;100336.78;;;17.04;70.69
46394;BME280;32099;53.588;10.176;2023-09-19T08:01:05;100333.06;;;16.98;71.18
46394;BME280;32099;53.588;10.176;2023-09-19T08:03:31;100335.22;;;16.96;71.24
46394;BME280;32099;53.588;10.176;2023-09-19T08:05:57;100327.63;;;16.91;72.22
46394;BME280;32099;53.588;10.176;2023-09-19T08:08:25;100330.72;;;16.83;72.53
46394;BME280;32099;53.588;10.176;2023-09-19T08:10:54;100336.09;;;16.78;73.71
46394;BME280;32099;53.588;10.176;2023-09-19T08:13:23;100352.34;;;16.68;73.09
46394;BME280;32099;53.588;10.176;2023-09-19T08:15:49;100348.69;;;16.55;72.25
46394;BME280;32099;53.588;10.176;2023-09-19T08:18:15;100346.63;;;16.50;73.31
46394;BME280;32099;53.588;10.176;2023-09-19T08:20:41;100352.59;;;16.47;73.25
46394;BME280;32099;53.588;10.176;2023-09-19T08:23:11;100351.53;;;16.48;73.07
46394;BME280;32099;53.588;10.176;2023-09-19T08:25:36;100348.94;;;16.54;73.23
46394;BME280;32099;53.588;10.176;2023-09-19T08:28:03;100347.53;;;16.63;72.75
46394;BME280;32099;53.588;10.176;2023-09-19T08:30:33;100337.88;;;16.72;72.02
46394;BME280;32099;53.588;10.176;2023-09-19T08:32:59;100341.50;;;16.85;71.43
46394;BME280;32099;53.588;10.176;2023-09-19T08:35:26;100347.09;;;16.96;71.61
46394;BME280;32099;53.588;10.176;2023-09-19T08:37:52;100341.59;;;17.08;71.44
46394;BME280;32099;53.588;10.176;2023-09-19T08:40:18;100342.31;;;17.16;70.06
46394;BME280;32099;53.588;10.176;2023-09-19T08:43:01;100341.34;;;17.10;69.46
46394;BME280;32099;53.588;10.176;2023-09-19T08:45:26;100339.09;;;17.07;69.47
46394;BME280;32099;53.588;10.176;2023-09-19T08:50:51;100340.41;;;17.16;70.84
46394;BME280;32099;53.588;10.176;2023-09-19T08:54:08;100342.09;;;17.17;69.07
46394;BME280;32099;53.588;10.176;2023-09-19T08:56:16;100345.22;;;17.21;69.69
46394;BME280;32099;53.588;10.176;2023-09-19T08:58:48;100345.31;;;17.26;69.02
46394;BME280;32099;53.588;10.176;2023-09-19T09:01:18;100345.00;;;17.34;69.38
46394;BME280;32099;53.588;10.176;2023-09-19T09:03:51;100345.09;;;17.39;69.79
46394;BME280;32099;53.588;10.176;2023-09-19T09:06:17;100348.09;;;17.50;68.65
46394;BME280;32099;53.588;10.176;2023-09-19T09:08:45;100350.75;;;17.56;68.55
46394;BME280;32099;53.588;10.176;2023-09-19T09:11:12;100350.88;;;17.62;68.07
46394;BME280;32099;53.588;10.176;2023-09-19T09:13:37;100352.78;;;17.61;67.74
46394;BME280;32099;53.588;10.176;2023-09-19T09:16:04;100356.59;;;17.60;66.88
46394;BME280;32099;53.588;10.176;2023-09-19T09:18:29;100368.50;;;17.61;68.36
46394;BME280;32099;53.588;10.176;2023-09-19T09:20:57;100361.44;;;17.65;67.64
46394;BME280;32099;53.588;10.176;2023-09-19T09:23:22;100363.47;;;17.69;66.85
46394;BME280;32099;53.588;10.176;2023-09-19T09:28:33;100359.53;;;17.77;67.17
46394;BME280;32099;53.588;10.176;2023-09-19T09:31:00;100364.66;;;17.85;67.66
46394;BME280;32099;53.588;10.176;2023-09-19T09:33:34;100356.72;;;17.89;66.12
46394;BME280;32099;53.588;10.176;2023-09-19T09:36:00;100364.03;;;17.95;66.32
46394;BME280;32099;53.588;10.176;2023-09-19T09:38:28;100365.00;;;18.01;65.92
46394;BME280;32099;53.588;10.176;2023-09-19T09:41:08;100371.88;;;18.10;65.22
46394;BME280;32099;53.588;10.176;2023-09-19T09:43:35;100376.13;;;18.18;65.02
46394;BME280;32099;53.588;10.176;2023-09-19T09:48:47;100365.41;;;18.45;63.87
46394;BME280;32099;53.588;10.176;2023-09-19T09:51:44;100382.59;;;18.64;62.60
46394;BME280;32099;53.588;10.176;2023-09-19T09:54:13;100374.03;;;18.78;62.96
46394;BME280;32099;53.588;10.176;2023-09-19T09:56:53;100370.63;;;18.88;61.36
46394;BME280;32099;53.588;10.176;2023-09-19T09:59:43;100377.22;;;18.99;60.74
46394;BME280;32099;53.588;10.176;2023-09-19T10:02:19;100379.44;;;19.14;62.18
46394;BME280;32099;53.588;10.176;2023-09-19T10:04:53;100371.31;;;19.24;62.39
46394;BME280;32099;53.588;10.176;2023-09-19T10:07:27;100377.19;;;19.27;59.30
46394;BME280;32099;53.588;10.176;2023-09-19T10:10:01;100375.81;;;19.30;61.61
46394;BME280;32099;53.588;10.176;2023-09-19T10:12:46;100363.25;;;19.39;60.29
46394;BME280;32099;53.588;10.176;2023-09-19T10:15:13;100368.63;;;19.46;61.06
46394;BME280;32099;53.588;10.176;2023-09-19T10:17:41;100370.41;;;19.52;60.54
46394;BME280;32099;53.588;10.176;2023-09-19T10:20:08;100376.41;;;19.49;56.40
46394;BME280;32099;53.588;10.176;2023-09-19T10:22:47;100380.22;;;19.43;55.94
46394;BME280;32099;53.588;10.176;2023-09-19T10:25:24;100382.38;;;19.41;59.49
46394;BME280;32099;53.588;10.176;2023-09-19T10:27:50;100390.34;;;19.37;58.05
46394;BME280;32099;53.588;10.176;2023-09-19T10:30:20;100387.00;;;19.35;59.68
46394;BME280;32099;53.588;10.176;2023-09-19T10:32:48;100387.22;;;19.34;55.99
46394;BME280;32099;53.588;10.176;2023-09-19T10:35:24;100381.13;;;19.32;57.15
46394;BME280;32099;53.588;10.176;2023-09-19T10:37:50;100380.59;;;19.35;59.12
46394;BME280;32099;53.588;10.176;2023-09-19T10:40:19;100375.94;;;19.35;60.53
46394;BME280;32099;53.588;10.176;2023-09-19T10:42:46;100377.59;;;19.36;58.21
46394;BME280;32099;53.588;10.176;2023-09-19T10:45:15;100369.22;;;19.31;58.00
46394;BME280;32099;53.588;10.176;2023-09-19T10:47:42;100382.69;;;19.27;57.04
46394;BME280;32099;53.588;10.176;2023-09-19T10:50:08;100376.91;;;19.29;58.03
46394;BME280;32099;53.588;10.176;2023-09-19T10:52:34;100373.81;;;19.25;58.30
46394;BME280;32099;53.588;10.176;2023-09-19T10:55:07;100375.25;;;19.28;57.48
46394;BME280;32099;53.588;10.176;2023-09-19T10:57:34;100379.69;;;19.29;57.29
46394;BME280;32099;53.588;10.176;2023-09-19T11:00:02;100379.09;;;19.27;56.53
46394;BME280;32099;53.588;10.176;2023-09-19T11:05:42;100378.16;;;19.38;58.36
46394;BME280;32099;53.588;10.176;2023-09-19T11:08:07;100382.22;;;19.48;59.89
46394;BME280;32099;53.588;10.176;2023-09-19T11:10:46;100384.81;;;19.54;57.89
46394;BME280;32099;53.588;10.176;2023-09-19T11:13:28;100387.81;;;19.53;57.44
46394;BME280;32099;53.588;10.176;2023-09-19T11:26:41;100388.81;;;19.64;56.88
46394;BME280;32099;53.588;10.176;2023-09-19T11:29:24;100378.00;;;19.62;57.25
46394;BME280;32099;53.588;10.176;2023-09-19T11:31:54;100375.00;;;19.64;56.70
46394;BME280;32099;53.588;10.176;2023-09-19T11:37:02;100370.88;;;19.66;56.10
46394;BME280;32099;53.588;10.176;2023-09-19T11:40:06;100374.25;;;19.68;56.78
46394;BME280;32099;53.588;10.176;2023-09-19T11:45:06;100372.97;;;19.76;58.35
46394;BME280;32099;53.588;10.176;2023-09-19T11:47:32;100375.81;;;19.81;56.19
46394;BME280;32099;53.588;10.176;2023-09-19T11:50:00;100372.44;;;19.79;54.31
46394;BME280;32099;53.588;10.176;2023-09-19T11:52:26;100365.25;;;19.78;58.04
46394;BME280;32099;53.588;10.176;2023-09-19T11:54:59;100376.81;;;19.75;55.08
46394;BME280;32099;53.588;10.176;2023-09-19T11:57:26;100370.13;;;19.71;56.11
46394;BME280;32099;53.588;10.176;2023-09-19T11:59:54;100372.97;;;19.76;56.02
46394;BME280;32099;53.588;10.176;2023-09-19T12:02:27;100365.50;;;19.77;55.07
46394;BME280;32099;53.588;10.176;2023-09-19T12:05:05;100367.00;;;19.84;57.23
46394;BME280;32099;53.588;10.176;2023-09-19T12:07:31;100379.59;;;19.92;54.92
46394;BME280;32099;53.588;10.176;2023-09-19T12:10:08;100362.56;;;20.00;55.58
46394;BME280;32099;53.588;10.176;2023-09-19T12:12:36;100362.09;;;20.09;54.68
46394;BME280;32099;53.588;10.176;2023-09-19T12:15:01;100367.91;;;20.07;55.55
46394;BME280;32099;53.588;10.176;2023-09-19T12:17:41;100365.97;;;20.08;56.31
46394;BME280;32099;53.588;10.176;2023-09-19T12:20:07;100370.75;;;20.12;57.07
46394;BME280;32099;53.588;10.176;2023-09-19T12:22:40;100378.97;;;20.07;56.94
46394;BME280;32099;53.588;10.176;2023-09-19T12:25:08;100372.84;;;20.05;56.34
46394;BME280;32099;53.588;10.176;2023-09-19T12:27:49;100366.53;;;20.10;56.49
46394;BME280;32099;53.588;10.176;2023-09-19T12:30:18;100369.13;;;20.16;57.39
46394;BME280;32099;53.588;10.176;2023-09-19T12:32:44;100367.34;;;20.27;55.96
46394;BME280;32099;53.588;10.176;2023-09-19T12:35:10;100356.00;;;20.29;53.94
46394;BME280;32099;53.588;10.176;2023-09-19T12:37:53;100372.09;;;20.32;54.75
46394;BME280;32099;53.588;10.176;2023-09-19T12:40:20;100359.97;;;20.38;55.55
46394;BME280;32099;53.588;10.176;2023-09-19T12:42:53;100363.09;;;20.42;54.27
46394;BME280;32099;53.588;10.176;2023-09-19T12:45:29;100371.66;;;20.40;53.73
46394;BME280;32099;53.588;10.176;2023-09-19T12:51:09;100375.66;;;20.27;56.16
46394;BME280;32099;53.588;10.176;2023-09-19T12:56:07;100356.13;;;20.39;52.81
46394;BME280;32099;53.588;10.176;2023-09-19T12:58:47;100361.06;;;20.37;51.60
46394;BME280;32099;53.588;10.176;2023-09-19T13:01:14;100347.81;;;20.39;55.03
46394;BME280;32099;53.588;10.176;2023-09-19T13:03:40;100362.31;;;20.46;53.64
46394;BME280;32099;53.588;10.176;2023-09-19T13:06:07;100352.56;;;20.44;53.87
46394;BME280;32099;53.588;10.176;2023-09-19T13:08:35;100351.25;;;20.46;53.65
46394;BME280;32099;53.588;10.176;2023-09-19T13:11:04;100346.91;;;20.56;54.96
46394;BME280;32099;53.588;10.176;2023-09-19T13:13:39;100343.88;;;20.57;51.56
46394;BME280;32099;53.588;10.176;2023-09-19T13:16:09;100343.63;;;20.59;53.04
46394;BME280;32099;53.588;10.176;2023-09-19T13:18:49;100335.88;;;20.61;52.61
46394;BME280;32099;53.588;10.176;2023-09-19T13:21:36;100336.47;;;20.63;52.59
46394;BME280;32099;53.588;10.176;2023-09-19T13:26:45;100328.94;;;20.58;51.51
46394;BME280;32099;53.588;10.176;2023-09-19T13:29:11;100321.13;;;20.55;53.31
46394;BME280;32099;53.588;10.176;2023-09-19T13:31:36;100314.50;;;20.56;53.17
46394;BME280;32099;53.588;10.176;2023-09-19T13:34:06;100320.34;;;20.60;52.43
46394;BME280;32099;53.588;10.176;2023-09-19T13:36:31;100319.72;;;20.53;49.67